createdAt,value
2023-05-02T00:02:43.308Z,98589.47
2023-05-02T00:07:46.397Z,98585.13
2023-05-02T00:12:50.522Z,98589.84
2023-05-02T00:17:53.458Z,98586.59
2023-05-02T00:22:56.807Z,98590.44
2023-05-02T00:28:01.175Z,98595.78
2023-05-02T00:33:06.966Z,98590.69
2023-05-02T00:38:10.137Z,98586.47
2023-05-02T00:43:14.635Z,98593.03
2023-05-02T00:48:20.688Z,98591.44
2023-05-02T00:53:23.818Z,98599.66
2023-05-02T00:58:29.336Z,98608.88
2023-05-02T01:03:40.194Z,98608.88
2023-05-02T01:08:51.626Z,98609.94
2023-05-02T01:13:57.218Z,98608.50
2023-05-02T01:19:02.618Z,98620.47
2023-05-02T01:24:11.193Z,98617.53
2023-05-02T01:29:17.999Z,98618.41
2023-05-02T01:34:23.303Z,98611.50
2023-05-02T01:39:27.775Z,98609.81
2023-05-02T01:44:35.980Z,98619.63
2023-05-02T01:49:40.458Z,98615.25
2023-05-02T01:54:45.360Z,98624.69
2023-05-02T01:59:51.385Z,98630.84
2023-05-02T02:04:55.922Z,98626.63
2023-05-02T02:09:59.215Z,98645.13
2023-05-02T02:15:14.328Z,98646.09
2023-05-02T02:20:18.029Z,98662.03
2023-05-02T02:25:21.007Z,98665.81
2023-05-02T02:30:25.187Z,98667.38
2023-05-02T02:35:35.683Z,98674.53
2023-05-02T02:40:45.501Z,98674.63
2023-05-02T02:46:01.910Z,98684.53
2023-05-02T02:51:13.924Z,98689.63
2023-05-02T02:56:21.058Z,98696.53
2023-05-02T03:01:28.041Z,98697.03
2023-05-02T03:06:31.066Z,98693.28
2023-05-02T03:11:34.431Z,98705.38
2023-05-02T03:16:40.069Z,98711.69
2023-05-02T03:21:47.420Z,98716.66
2023-05-02T03:26:56.178Z,98718.22
2023-05-02T03:32:04.097Z,98721.03
2023-05-02T03:37:07.176Z,98730.69
2023-05-02T03:42:09.989Z,98736.25
2023-05-02T03:47:14.660Z,98735.69
2023-05-02T03:52:19.007Z,98743.19
2023-05-02T03:57:23.147Z,98753.34
2023-05-02T04:02:27.979Z,98752.38
2023-05-02T04:07:31.020Z,98760.13
2023-05-02T05:15:27.416Z,98847.00
2023-05-02T05:20:34.240Z,98848.47
2023-05-02T05:25:40.382Z,98851.47
2023-05-02T05:30:45.836Z,98864.22
2023-05-02T05:35:53.041Z,98866.75
2023-05-02T05:40:57.670Z,98875.47
2023-05-02T05:46:03.825Z,98880.06
2023-05-02T05:51:09.507Z,98885.53
2023-05-02T05:56:13.186Z,98894.13
2023-05-02T06:01:24.041Z,98897.66
2023-05-02T06:06:28.206Z,98897.41
2023-05-02T06:11:31.156Z,98909.91
2023-05-02T06:16:36.207Z,98918.97
2023-05-02T06:21:39.270Z,98926.72
2023-05-02T06:26:43.178Z,98934.09
2023-05-02T06:31:47.360Z,98944.66
2023-05-02T06:36:51.713Z,98961.00
2023-05-02T06:41:58.884Z,98955.81
2023-05-02T06:47:05.798Z,98959.34
2023-05-02T06:52:10.486Z,98967.34
2023-05-02T06:57:14.070Z,98982.63
2023-05-02T07:02:18.923Z,98989.31
2023-05-02T07:07:22.458Z,98997.69
2023-05-02T07:12:26.990Z,98997.56
2023-05-02T07:17:31.322Z,99008.47
2023-05-02T07:22:34.497Z,99006.91
2023-05-02T07:27:37.699Z,99014.31
2023-05-02T07:32:41.969Z,99017.56
2023-05-02T07:37:45.993Z,99012.84
2023-05-02T07:42:50.749Z,99008.22
2023-05-02T07:47:54.934Z,99008.78
2023-05-02T07:52:58.027Z,99013.97
2023-05-02T07:58:00.923Z,99016.78
2023-05-02T08:03:06.125Z,99022.41
2023-05-02T08:08:09.053Z,99032.66
2023-05-02T08:13:13.110Z,99025.91
2023-05-02T08:18:19.485Z,99022.81
2023-05-02T08:23:22.266Z,99026.78
2023-05-02T08:28:25.366Z,99025.88
2023-05-02T08:33:30.801Z,99032.38
2023-05-02T08:38:33.608Z,99022.22
2023-05-02T08:43:38.691Z,99042.59
2023-05-02T08:48:46.096Z,99038.56
2023-05-02T08:53:50.347Z,99045.94
2023-05-02T08:58:53.399Z,99050.81
2023-05-02T09:03:59.196Z,99054.25
2023-05-02T09:09:02.085Z,99065.81
2023-05-02T09:14:15.970Z,99068.38
2023-05-02T09:19:27.614Z,99072.47
2023-05-02T09:24:30.589Z,99075.72
2023-05-02T09:29:37.859Z,99070.50
2023-05-02T09:34:41.902Z,99066.91
2023-05-02T09:40:06.948Z,99064.19
2023-05-02T09:45:10.822Z,99075.53
2023-05-02T09:50:34.303Z,99089.06
2023-05-02T09:55:38.056Z,99092.50
2023-05-02T10:00:43.573Z,99099.75
2023-05-02T10:05:50.727Z,99108.38
2023-05-02T10:10:55.574Z,99103.81
2023-05-02T10:16:01.674Z,99114.56
2023-05-02T10:21:11.403Z,99123.34
2023-05-02T10:26:16.793Z,99119.56
2023-05-02T10:31:20.002Z,99121.38
2023-05-02T10:36:28.142Z,99109.63
2023-05-02T10:41:35.097Z,99115.38
2023-05-02T10:46:40.636Z,99114.03
2023-05-02T10:51:46.857Z,99109.13
2023-05-02T10:57:07.593Z,99104.41
2023-05-02T11:02:44.236Z,99099.31
2023-05-02T11:07:49.154Z,99113.97
2023-05-02T11:12:53.176Z,99110.16
2023-05-02T11:18:03.535Z,99111.25
2023-05-02T11:23:26.050Z,99109.69
2023-05-02T11:28:47.965Z,99104.44
2023-05-02T11:33:57.584Z,99107.78
2023-05-02T11:39:02.056Z,99114.69
2023-05-02T11:44:08.109Z,99122.84
2023-05-02T11:49:15.120Z,99130.06
2023-05-02T11:54:21.875Z,99133.59
2023-05-02T11:59:25.187Z,99136.91
2023-05-02T12:04:30.216Z,99137.66
2023-05-02T12:09:35.129Z,99147.72
2023-05-02T12:14:41.222Z,99155.06
2023-05-02T12:19:44.437Z,99166.91
2023-05-02T12:24:50.604Z,99169.75
2023-05-02T12:29:54.990Z,99179.06
2023-05-02T12:34:58.800Z,99178.63
2023-05-02T12:40:03.453Z,99181.75
2023-05-02T12:45:18.090Z,99189.19
2023-05-02T12:50:21.213Z,99193.72
2023-05-02T12:55:26.905Z,99191.59
2023-05-02T13:00:30.211Z,99197.03
2023-05-02T13:05:36.208Z,99201.16
2023-05-02T13:10:40.600Z,99204.88
2023-05-02T13:15:44.491Z,99211.22
2023-05-02T13:20:49.587Z,99217.44
2023-05-02T13:25:54.231Z,99218.63
2023-05-02T13:30:57.019Z,99213.50
2023-05-02T13:36:01.590Z,99217.91
2023-05-02T13:41:10.414Z,99220.66
2023-05-02T13:46:15.298Z,99222.84
2023-05-02T13:51:18.863Z,99226.81
2023-05-02T13:56:24.719Z,99225.63
2023-05-02T14:01:28.382Z,99224.94
2023-05-02T14:06:31.956Z,99224.00
2023-05-02T14:11:36.321Z,99227.00
2023-05-02T14:16:40.251Z,99226.72
2023-05-02T14:21:43.042Z,99227.13
2023-05-02T14:26:48.742Z,99227.97
2023-05-02T14:31:51.521Z,99233.88
2023-05-02T14:36:55.287Z,99243.22
2023-05-02T14:42:03.147Z,99239.66
2023-05-02T14:47:07.159Z,99246.72
2023-05-02T14:52:10.301Z,99251.88
2023-05-02T14:57:15.425Z,99249.25
2023-05-02T15:02:18.300Z,99244.38
2023-05-02T15:07:22.887Z,99248.19
2023-05-02T15:12:27.100Z,99238.75
2023-05-02T15:17:31.313Z,99238.47
2023-05-02T15:22:34.063Z,99249.78
2023-05-02T15:27:38.309Z,99247.13
2023-05-02T15:32:43.059Z,99245.84
2023-05-02T15:37:47.343Z,99250.31
2023-05-02T15:42:51.879Z,99250.94
2023-05-02T15:47:55.849Z,99250.41
2023-05-02T15:52:58.601Z,99245.44
2023-05-02T15:58:03.477Z,99245.88
2023-05-02T16:03:06.646Z,99255.59
2023-05-02T16:08:09.446Z,99264.25
2023-05-02T16:13:14.399Z,99259.22
2023-05-02T16:18:17.559Z,99258.22
2023-05-02T16:23:22.616Z,99255.28
2023-05-02T16:28:28.460Z,99257.91
2023-05-02T16:33:31.515Z,99266.41
2023-05-02T16:38:36.243Z,99259.63
2023-05-02T16:43:40.431Z,99276.00
2023-05-02T16:48:44.486Z,99269.03
2023-05-02T16:53:48.084Z,99270.13
2023-05-02T16:58:52.156Z,99271.66
2023-05-02T17:03:54.857Z,99270.84
2023-05-02T17:08:57.539Z,99277.69
2023-05-02T17:14:02.026Z,99268.44
2023-05-02T17:19:05.168Z,99279.28
2023-05-02T17:24:08.359Z,99278.03
2023-05-02T17:29:14.596Z,99286.22
2023-05-02T17:34:17.364Z,99292.97
2023-05-02T17:39:22.044Z,99285.81
2023-05-02T17:44:26.510Z,99289.00
2023-05-02T17:49:29.216Z,99281.66
2023-05-02T17:54:31.988Z,99289.81
2023-05-02T17:59:40.554Z,99289.47
2023-05-02T18:04:45.285Z,99296.53
2023-05-02T18:09:48.105Z,99299.13
2023-05-02T18:14:53.112Z,99296.88
2023-05-02T18:19:56.557Z,99309.25
2023-05-02T18:24:59.619Z,99313.75
2023-05-02T18:30:06.309Z,99319.75
2023-05-02T18:35:10.476Z,99326.56
2023-05-02T18:40:14.014Z,99335.06
2023-05-02T18:45:19.899Z,99333.31
2023-05-02T18:50:23.554Z,99334.38
2023-05-02T18:55:27.139Z,99341.69
2023-05-02T19:00:31.638Z,99347.78
2023-05-02T19:05:34.777Z,99353.34
2023-05-02T19:10:37.566Z,99351.50
2023-05-02T19:15:41.808Z,99358.13
2023-05-02T19:20:45.782Z,99373.63
2023-05-02T19:25:49.389Z,99372.91
2023-05-02T19:30:55.917Z,99381.13
2023-05-02T19:36:00.085Z,99377.47
2023-05-02T19:41:04.484Z,99384.19
2023-05-02T19:46:08.715Z,99388.81
2023-05-02T19:51:13.902Z,99389.44
2023-05-02T19:56:16.690Z,99400.59
2023-05-02T20:01:21.022Z,99407.16
2023-05-02T20:06:24.736Z,99415.47
2023-05-02T20:11:27.641Z,99424.72
2023-05-02T20:16:31.954Z,99423.59
2023-05-02T20:21:34.978Z,99425.53
2023-05-02T20:26:37.728Z,99429.91
2023-05-02T20:31:42.176Z,99443.53
2023-05-02T20:36:44.937Z,99434.25
2023-05-02T20:41:49.524Z,99440.78
2023-05-02T20:46:53.584Z,99442.22
2023-05-02T20:51:57.268Z,99445.28
2023-05-02T20:57:00.045Z,99443.00
2023-05-02T21:02:04.283Z,99441.69
2023-05-02T21:07:07.093Z,99443.09
2023-05-02T21:12:09.813Z,99448.31
2023-05-02T21:17:13.864Z,99451.59
2023-05-02T21:22:16.590Z,99450.13
2023-05-02T21:27:19.538Z,99458.78
2023-05-02T21:32:25.801Z,99466.34
2023-05-02T21:37:28.750Z,99467.53
2023-05-02T21:42:31.503Z,99472.28
2023-05-02T21:47:35.645Z,99471.00
2023-05-02T21:52:39.366Z,99473.41
2023-05-02T21:57:42.174Z,99469.13
2023-05-02T22:02:46.693Z,99485.19
2023-05-02T22:07:49.934Z,99478.88
2023-05-02T22:12:52.644Z,99476.13
2023-05-02T22:17:57.187Z,99476.13
2023-05-02T22:22:59.918Z,99480.44
2023-05-02T22:28:06.692Z,99483.03
2023-05-02T22:33:10.950Z,99498.94
2023-05-02T22:38:16.488Z,99494.19
2023-05-02T22:43:19.358Z,99493.81
2023-05-02T22:48:23.414Z,99502.47
2023-05-02T22:53:26.196Z,99493.69
2023-05-02T22:58:28.888Z,99499.16
2023-05-02T23:03:33.114Z,99490.91
2023-05-02T23:08:35.903Z,99500.22
2023-05-02T23:13:38.614Z,99504.47
2023-05-02T23:18:42.693Z,99504.53
2023-05-02T23:23:47.195Z,99501.41
2023-05-02T23:28:49.950Z,99500.81
2023-05-02T23:33:54.330Z,99498.28
2023-05-02T23:38:57.047Z,99495.63
2023-05-02T23:44:00.172Z,99499.41
2023-05-02T23:49:04.663Z,99498.94
2023-05-02T23:54:07.733Z,99496.66
2023-05-02T23:59:10.960Z,99506.75
